createdAt,value
2017-11-18T00:00:15.081Z,78.00
2017-11-18T00:02:44.911Z,77.50
2017-11-18T00:05:13.045Z,77.50
2017-11-18T00:07:41.159Z,77.10
2017-11-18T00:10:09.307Z,77.40
2017-11-18T00:12:37.415Z,77.40
2017-11-18T00:15:05.541Z,77.50
2017-11-18T00:17:33.674Z,77.40
2017-11-18T00:20:02.584Z,77.70
2017-11-18T00:22:30.702Z,77.60
2017-11-18T00:24:58.860Z,78.30
2017-11-18T00:27:26.984Z,78.20
2017-11-18T00:29:55.904Z,78.00
2017-11-18T00:32:24.040Z,78.00
2017-11-18T00:34:52.949Z,77.60
2017-11-18T00:37:21.061Z,77.70
2017-11-18T00:39:49.209Z,78.00
2017-11-18T00:42:17.327Z,77.90
2017-11-18T00:44:45.887Z,77.40
2017-11-18T00:47:13.999Z,77.10
2017-11-18T00:49:42.139Z,76.10
2017-11-18T00:52:10.252Z,76.80
2017-11-18T00:54:39.148Z,75.40
2017-11-18T00:57:08.034Z,75.90
2017-11-18T00:59:36.941Z,76.70
2017-11-18T01:02:05.108Z,76.70
2017-11-18T01:04:34.015Z,77.60
2017-11-18T01:07:02.139Z,77.70
2017-11-18T01:09:30.261Z,77.70
2017-11-18T01:11:58.388Z,77.60
2017-11-18T01:14:26.535Z,77.70
2017-11-18T01:16:54.682Z,77.60
2017-11-18T01:19:22.799Z,77.90
2017-11-18T01:21:50.931Z,78.50
2017-11-18T01:24:19.039Z,77.90
2017-11-18T01:26:47.172Z,77.90
2017-11-18T01:29:15.271Z,77.80
2017-11-18T01:31:43.414Z,77.60
2017-11-18T01:34:11.523Z,77.30
2017-11-18T01:36:39.660Z,77.00
2017-11-18T01:39:07.779Z,76.60
2017-11-18T01:41:35.906Z,76.70
2017-11-18T01:44:04.043Z,76.20
2017-11-18T01:46:32.176Z,75.70
2017-11-18T01:49:00.300Z,75.70
2017-11-18T01:51:29.205Z,74.90
2017-11-18T01:53:58.093Z,74.60
2017-11-18T01:56:26.999Z,74.70
2017-11-18T01:58:55.118Z,74.70
2017-11-18T02:01:23.274Z,74.50
2017-11-18T02:03:51.407Z,74.30
2017-11-18T02:06:20.308Z,74.80
2017-11-18T02:08:48.414Z,74.80
2017-11-18T02:11:16.559Z,75.10
2017-11-18T02:13:44.683Z,75.00
2017-11-18T02:16:12.821Z,75.00
2017-11-18T02:18:40.935Z,75.00
2017-11-18T02:21:09.112Z,75.00
2017-11-18T02:23:37.218Z,75.10
2017-11-18T02:26:05.367Z,75.00
2017-11-18T02:28:34.271Z,74.40
2017-11-18T02:31:03.189Z,74.40
2017-11-18T02:33:31.309Z,74.40
2017-11-18T02:35:59.442Z,74.40
2017-11-18T02:38:27.589Z,74.50
2017-11-18T02:40:55.728Z,74.70
2017-11-18T02:43:23.867Z,74.70
2017-11-18T02:45:51.982Z,74.80
2017-11-18T02:48:20.113Z,73.80
2017-11-18T02:50:48.238Z,73.40
2017-11-18T02:53:17.158Z,73.60
2017-11-18T02:55:45.293Z,73.60
2017-11-18T02:58:14.193Z,73.00
2017-11-18T03:00:43.111Z,73.40
2017-11-18T03:03:11.250Z,73.40
2017-11-18T03:05:39.396Z,73.20
2017-11-18T03:08:07.583Z,73.00
2017-11-18T03:10:35.702Z,73.10
2017-11-18T03:13:03.929Z,73.00
2017-11-18T03:15:32.058Z,72.50
2017-11-18T03:18:00.197Z,72.90
2017-11-18T03:20:29.087Z,72.70
2017-11-18T03:22:57.978Z,72.90
2017-11-18T03:25:26.892Z,72.40
2017-11-18T03:27:55.032Z,72.30
2017-11-18T03:30:23.164Z,72.30
2017-11-18T03:32:51.316Z,72.00
2017-11-18T03:35:19.426Z,72.10
2017-11-18T03:37:47.557Z,72.10
2017-11-18T03:40:15.677Z,72.30
2017-11-18T03:42:43.819Z,72.50
2017-11-18T03:45:11.922Z,72.60
2017-11-18T03:47:40.068Z,72.50
2017-11-18T03:50:08.210Z,72.70
2017-11-18T03:52:37.099Z,72.80
2017-11-18T03:55:05.987Z,73.20
2017-11-18T03:57:34.876Z,73.20
2017-11-18T04:00:03.859Z,73.00
2017-11-18T04:02:37.582Z,73.00
2017-11-18T04:05:06.482Z,73.20
2017-11-18T04:07:34.597Z,73.20
2017-11-18T04:10:02.771Z,73.00
2017-11-18T04:12:30.881Z,72.60
2017-11-18T04:14:59.789Z,73.10
2017-11-18T04:17:27.914Z,73.20
2017-11-18T04:19:56.042Z,73.40
2017-11-18T04:22:24.177Z,73.10
2017-11-18T04:24:53.091Z,73.80
2017-11-18T04:27:21.970Z,73.40
2017-11-18T04:29:50.894Z,73.60
2017-11-18T04:32:19.030Z,73.60
2017-11-18T04:34:47.197Z,74.00
2017-11-18T04:37:15.319Z,74.30
2017-11-18T04:39:43.468Z,74.10
2017-11-18T04:42:12.356Z,74.00
2017-11-18T04:44:41.260Z,74.20
2017-11-18T04:47:09.406Z,73.40
2017-11-18T04:49:37.537Z,73.30
2017-11-18T04:52:05.681Z,73.60
2017-11-18T04:54:33.848Z,73.00
2017-11-18T04:57:02.016Z,73.10
2017-11-18T04:59:30.170Z,73.30
2017-11-18T05:01:58.281Z,73.10
2017-11-18T05:04:26.420Z,72.80
2017-11-18T05:06:55.342Z,71.60
2017-11-18T05:09:23.525Z,71.60
2017-11-18T05:11:51.638Z,71.30
2017-11-18T05:14:19.803Z,72.70
2017-11-18T05:16:47.906Z,72.10
2017-11-18T05:19:16.048Z,72.40
2017-11-18T05:21:44.170Z,72.00
2017-11-18T05:24:13.101Z,71.20
2017-11-18T05:26:41.258Z,71.10
2017-11-18T05:29:09.428Z,71.30
2017-11-18T05:31:37.586Z,71.50
2017-11-18T05:34:06.784Z,70.70
2017-11-18T05:36:35.791Z,71.40
2017-11-18T05:39:03.909Z,71.40
2017-11-18T05:41:32.037Z,71.70
2017-11-18T05:44:00.159Z,71.80
2017-11-18T05:46:28.302Z,72.20
2017-11-18T05:48:56.446Z,72.00
2017-11-18T05:51:24.598Z,71.90
2017-11-18T05:53:52.713Z,70.40
2017-11-18T05:56:20.858Z,71.10
2017-11-18T05:58:49.739Z,70.20
2017-11-18T06:01:17.887Z,70.20
2017-11-18T06:03:46.005Z,70.80
2017-11-18T06:06:14.931Z,71.10
2017-11-18T06:08:43.120Z,71.10
2017-11-18T06:11:11.263Z,71.30
2017-11-18T06:13:39.376Z,70.90
2017-11-18T06:16:07.515Z,70.70
2017-11-18T06:18:35.631Z,70.60
2017-11-18T06:21:03.877Z,71.10
2017-11-18T06:23:32.064Z,70.20
2017-11-18T06:26:00.201Z,70.00
2017-11-18T06:28:28.335Z,70.20
2017-11-18T06:30:56.485Z,69.80
2017-11-18T06:33:25.064Z,70.40
2017-11-18T06:35:54.215Z,70.00
2017-11-18T06:38:22.324Z,69.70
2017-11-18T06:40:51.766Z,69.70
2017-11-18T06:43:19.873Z,69.90
2017-11-18T06:46:00.493Z,69.60
2017-11-18T06:48:28.614Z,68.70
2017-11-18T06:50:56.755Z,68.50
2017-11-18T06:53:26.112Z,68.80
2017-11-18T06:55:54.233Z,68.70
2017-11-18T06:58:22.386Z,68.00
2017-11-18T07:00:50.518Z,68.20
2017-11-18T07:03:18.678Z,68.00
2017-11-18T07:05:46.809Z,68.60
2017-11-18T07:08:14.933Z,68.50
2017-11-18T07:10:43.859Z,68.80
2017-11-18T07:13:12.004Z,68.80
2017-11-18T07:15:40.934Z,68.50
2017-11-18T07:18:09.267Z,68.50
2017-11-18T07:20:37.552Z,68.30
2017-11-18T07:23:06.498Z,68.70
2017-11-18T07:25:34.607Z,68.70
2017-11-18T07:28:02.818Z,68.10
2017-11-18T07:30:31.059Z,67.90
2017-11-18T07:33:00.084Z,69.30
2017-11-18T07:35:28.198Z,69.30
2017-11-18T07:37:56.353Z,68.80
2017-11-18T07:40:24.466Z,68.10
2017-11-18T07:42:52.938Z,67.50
2017-11-18T07:45:21.860Z,67.40
2017-11-18T07:47:50.078Z,67.90
2017-11-18T07:50:18.958Z,66.90
2017-11-18T07:52:47.854Z,67.80
